Česky Dansk Deutsch English Español Suomi Français Magyar Italiano Nederlands norsk Polski Português svenska Türkçe

 

Het Weer

Concepcion (Bolivië)

22:00, 17 juli 2016 (GMT)

NWNNE
WE
SWSSE
Home            
Concepcion San Javier San Ignacio De Velasco Ascencion De Guarayos Viru-Viru Santa Cruz / El Trompillo San Jose De Chiquitos Robore Trinidad Magdalena San Ignacio De Moxos Vilhena Aeroporto Santa Ana San Joaquin Camiri Cochabamba Sucre Nueva Asuncion San Borja Puerto Suarez Potosi Oruro Corumba

Om een weerknop op uw website of weblog te plaatsen, copieer onderstaande code en plak die in uw pagina. In het eerste vakje staat HTML-code, in het tweede vakje UBB-code.


Add to Google

Details

Visibility:Greater than 10000 m, 10 km, 32800 ft, 6.2 miles
Clouds:Aufgelockert bewölkt at 7000 ft, 2134 m
Temperature:21°C, 70°F
Dew-point:15°C, 59°F
Atmospheric pressure:1018 hPa, 763.6 mmHg, 30.06 inHg, 1.005 atm
Relative humidity:68.6 %
METAR:SLCP 172200Z 00000KT 9999 SCT070 21/15 Q1018

Snelkoppelingen

Actuele weersinformatie van de hele wereld. Voeg locaties toe met het plus (+) symbool. Deze snelkoppelingen kunnen worden toegevoegd aan Google.

Lid van de Technetium groep

website free tracking
StatCounter NetStat W3C Validator

05-08-2020 08:38:36
astro.technetium.be money.technetium.be phote.technetium.be tafeltennistafel.technetium.be www.ligfiets.net